createdAt,value
2017-08-03T00:09:03.819Z,1006.86
2017-08-03T00:19:03.776Z,1006.95
2017-08-03T00:29:03.848Z,1006.55
2017-08-03T00:39:03.808Z,1006.61
2017-08-03T00:49:03.752Z,1006.22
2017-08-03T00:59:03.830Z,1006.2
2017-08-03T01:09:03.829Z,1005.93
2017-08-03T01:19:03.925Z,1005.72
2017-08-03T01:29:03.795Z,1005.67
2017-08-03T01:39:03.832Z,1005.53
2017-08-03T01:49:03.896Z,1005.31
2017-08-03T01:59:03.787Z,1004.91
2017-08-03T02:09:03.801Z,1004.82
2017-08-03T02:19:03.810Z,1004.62
2017-08-03T02:29:03.768Z,1004.78
2017-08-03T02:39:03.851Z,1005.11
2017-08-03T02:49:03.801Z,1004.6
2017-08-03T02:59:03.743Z,1004.39
2017-08-03T03:09:03.803Z,1004.46
2017-08-03T03:19:03.763Z,1004.23
2017-08-03T03:29:03.835Z,1004.16
2017-08-03T03:39:03.813Z,1003.74
2017-08-03T03:49:03.806Z,1003.42
2017-08-03T03:59:03.830Z,1003.11
2017-08-03T04:09:03.798Z,1003.13
2017-08-03T04:19:03.851Z,1003.17
2017-08-03T04:29:03.811Z,1003.02
2017-08-03T04:39:03.758Z,1002.85
2017-08-03T04:49:03.846Z,1003.29
2017-08-03T04:59:03.797Z,1003.01
2017-08-03T05:09:03.763Z,1002.85
2017-08-03T05:19:03.810Z,1002.78
2017-08-03T05:29:03.764Z,1002.32
2017-08-03T05:39:03.843Z,1002.33
2017-08-03T05:49:03.786Z,1002.5
2017-08-03T05:59:03.855Z,1002.42
2017-08-03T06:09:03.836Z,1002.29
2017-08-03T06:19:03.768Z,1002.32
2017-08-03T06:29:03.849Z,1002.02
2017-08-03T06:39:03.826Z,1002.13
2017-08-03T06:49:03.758Z,1002.15
2017-08-03T06:59:03.763Z,1002.32
2017-08-03T07:09:03.755Z,1002.32
2017-08-03T07:19:03.771Z,1002.24
2017-08-03T07:29:03.742Z,1002.3
2017-08-03T07:39:03.770Z,1002.11
2017-08-03T07:49:03.778Z,1002
2017-08-03T07:59:03.772Z,1002.28
2017-08-03T08:09:03.764Z,1002.52
2017-08-03T08:19:03.819Z,1002.08
2017-08-03T08:29:03.783Z,1002.07
2017-08-03T08:39:03.768Z,1002.09
2017-08-03T08:49:03.771Z,1002.1
2017-08-03T08:59:03.772Z,1002.02
2017-08-03T09:09:03.790Z,1002
2017-08-03T09:19:03.799Z,1002.01
2017-08-03T09:29:03.778Z,1001.78
2017-08-03T09:39:03.812Z,1001.63
2017-08-03T09:49:03.796Z,1001.62
2017-08-03T09:59:03.788Z,1001.68
2017-08-03T10:09:03.790Z,1001.54
2017-08-03T10:19:03.799Z,1001.61
2017-08-03T10:29:03.842Z,1001.61
2017-08-03T10:39:03.808Z,1001.56
2017-08-03T10:49:03.807Z,1001.41
2017-08-03T10:59:03.800Z,1001.55
2017-08-03T11:09:03.803Z,1001.66
2017-08-03T11:19:03.835Z,1001.8
2017-08-03T11:29:03.810Z,1002.06
2017-08-03T11:39:03.821Z,1002.22
2017-08-03T11:49:03.802Z,1002.33
2017-08-03T11:59:03.903Z,1002.35
2017-08-03T12:09:03.903Z,1002.13
2017-08-03T12:19:03.896Z,1002.26
2017-08-03T12:29:03.825Z,1002.03
2017-08-03T12:39:03.895Z,1002.17
2017-08-03T12:49:03.863Z,1002.09
2017-08-03T12:59:03.937Z,1001.89
2017-08-03T13:09:03.873Z,1001.88
2017-08-03T13:19:03.875Z,1002
2017-08-03T13:29:03.914Z,1002.01
2017-08-03T13:39:03.869Z,1002.12
2017-08-03T13:49:03.927Z,1001.97
2017-08-03T13:59:03.869Z,1001.86
2017-08-03T14:09:03.974Z,1001.99
2017-08-03T14:19:03.908Z,1001.86
2017-08-03T14:29:03.864Z,1001.98
2017-08-03T14:39:03.921Z,1001.93
2017-08-03T14:49:03.892Z,1001.89
2017-08-03T14:59:03.941Z,1001.79
2017-08-03T15:09:03.854Z,1001.96
2017-08-03T15:19:03.866Z,1001.86
2017-08-03T15:29:03.941Z,1002.08
2017-08-03T15:39:03.889Z,1001.92
2017-08-03T15:49:03.877Z,1002.13
2017-08-03T15:59:03.924Z,1002.19
2017-08-03T16:09:03.887Z,1002.16
2017-08-03T16:19:03.914Z,1002.27
2017-08-03T16:29:04.138Z,1002.46
2017-08-03T16:39:03.937Z,1002.48
2017-08-03T16:49:03.895Z,1002.34
2017-08-03T16:59:03.960Z,1002.33
2017-08-03T17:09:03.945Z,1002.48
2017-08-03T17:19:04.902Z,1002.48
2017-08-03T17:29:03.934Z,1002.68
2017-08-03T17:39:03.895Z,1002.67
2017-08-03T17:49:03.957Z,1002.58
2017-08-03T17:59:03.955Z,1002.75
2017-08-03T18:09:03.882Z,1002.77
2017-08-03T18:19:03.873Z,1002.77
2017-08-03T18:29:03.886Z,1002.84
2017-08-03T18:39:03.888Z,1002.98
2017-08-03T18:49:03.876Z,1003.01
2017-08-03T18:59:03.890Z,1003.07
2017-08-03T19:09:03.885Z,1003.12
2017-08-03T19:19:03.924Z,1003.24
2017-08-03T19:29:03.978Z,1003.37
2017-08-03T19:39:03.945Z,1003.41
2017-08-03T19:49:04.405Z,1003.51
2017-08-03T19:59:03.979Z,1003.62
2017-08-03T20:09:03.930Z,1003.69
2017-08-03T20:19:03.989Z,1003.88
2017-08-03T20:29:03.946Z,1003.9
2017-08-03T20:39:04.038Z,1004
2017-08-03T20:49:03.972Z,1003.96
2017-08-03T20:59:03.915Z,1003.88
2017-08-03T21:09:04.001Z,1003.78
2017-08-03T21:19:03.940Z,1003.66
2017-08-03T21:29:03.907Z,1003.66
2017-08-03T21:39:06.428Z,1003.67
2017-08-03T21:49:03.995Z,1003.69
2017-08-03T21:59:03.970Z,1003.7
2017-08-03T22:09:04.012Z,1003.69
2017-08-03T22:19:03.969Z,1003.64
2017-08-03T22:29:03.924Z,1003.48
2017-08-03T22:39:03.984Z,1003.4
2017-08-03T22:49:03.945Z,1003.42
2017-08-03T22:59:03.908Z,1003.46
2017-08-03T23:09:03.985Z,1003.38
2017-08-03T23:19:03.954Z,1003.4
2017-08-03T23:29:03.977Z,1003.34
2017-08-03T23:39:03.971Z,1003.38
2017-08-03T23:49:04.016Z,1003.24
2017-08-03T23:59:03.954Z,1003.19
